James, South Dakota
Current Conditions -  °F | °C
As of 9:53 PM on Friday 28 Nov 2014 (Local Time) from KABR Reporting Station
Clear Clear  
Wind Chill:   Ceiling: Unl
Heat Index: 14°   Visibility: 10mi
Dew Point: 10°   Wind: 5mph
Humidity: 84%   Direction: 180°S
Pressure: 29.55"   Gusts: NA
Location:  45.4583°N, 98.1109°W
Report Text: KABR 290353Z AUTO 18004KT 10SM CLR M10/M12 A2955 RMK AO2 SLP028 T11001122
Loading
Personal Weather Stations






























Interactive Weather Map New forecast layout! Learn more

10-Day Weather Forecast

Advertisements
Track Severe Weather on mobile